sensor_id;sensor_type;location;lat;lon;timestamp;P1;durP1;ratioP1;P2;durP2;ratioP2
32026;SDS011;18543;50.848;4.596;2022-09-24T00:01:34;27.50;;;24.60;;
32026;SDS011;18543;50.848;4.596;2022-09-24T00:04:03;27.33;;;24.55;;
32026;SDS011;18543;50.848;4.596;2022-09-24T00:06:33;27.17;;;24.30;;
32026;SDS011;18543;50.848;4.596;2022-09-24T00:09:07;27.35;;;24.50;;
32026;SDS011;18543;50.848;4.596;2022-09-24T00:11:34;27.20;;;24.42;;
32026;SDS011;18543;50.848;4.596;2022-09-24T00:14:01;29.80;;;25.17;;
32026;SDS011;18543;50.848;4.596;2022-09-24T00:16:28;30.05;;;25.48;;
32026;SDS011;18543;50.848;4.596;2022-09-24T00:18:59;28.77;;;25.80;;
32026;SDS011;18543;50.848;4.596;2022-09-24T00:21:32;29.05;;;26.02;;
32026;SDS011;18543;50.848;4.596;2022-09-24T00:24:01;27.75;;;24.90;;
32026;SDS011;18543;50.848;4.596;2022-09-24T00:26:30;27.67;;;24.77;;
32026;SDS011;18543;50.848;4.596;2022-09-24T00:29:19;27.92;;;24.95;;
32026;SDS011;18543;50.848;4.596;2022-09-24T00:31:49;29.23;;;26.08;;
32026;SDS011;18543;50.848;4.596;2022-09-24T00:34:17;29.27;;;26.25;;
32026;SDS011;18543;50.848;4.596;2022-09-24T00:39:12;28.45;;;25.48;;
32026;SDS011;18543;50.848;4.596;2022-09-24T00:41:41;28.45;;;25.58;;
32026;SDS011;18543;50.848;4.596;2022-09-24T00:47:12;27.58;;;24.67;;
32026;SDS011;18543;50.848;4.596;2022-09-24T00:49:42;27.80;;;24.17;;
32026;SDS011;18543;50.848;4.596;2022-09-24T00:52:13;27.48;;;24.58;;
32026;SDS011;18543;50.848;4.596;2022-09-24T00:54:40;27.90;;;25.00;;
32026;SDS011;18543;50.848;4.596;2022-09-24T00:57:09;29.15;;;23.45;;
32026;SDS011;18543;50.848;4.596;2022-09-24T00:59:37;26.95;;;23.73;;
32026;SDS011;18543;50.848;4.596;2022-09-24T01:02:05;27.10;;;24.20;;
32026;SDS011;18543;50.848;4.596;2022-09-24T01:04:34;26.00;;;23.33;;
32026;SDS011;18543;50.848;4.596;2022-09-24T01:07:00;26.90;;;23.52;;
32026;SDS011;18543;50.848;4.596;2022-09-24T01:09:28;28.27;;;24.55;;
32026;SDS011;18543;50.848;4.596;2022-09-24T01:17:36;26.40;;;23.63;;
32026;SDS011;18543;50.848;4.596;2022-09-24T01:20:12;28.38;;;22.90;;
32026;SDS011;18543;50.848;4.596;2022-09-24T01:31:21;29.05;;;24.17;;
32026;SDS011;18543;50.848;4.596;2022-09-24T01:33:54;28.55;;;24.15;;
32026;SDS011;18543;50.848;4.596;2022-09-24T01:36:27;27.10;;;23.23;;
32026;SDS011;18543;50.848;4.596;2022-09-24T01:38:56;27.05;;;24.15;;
32026;SDS011;18543;50.848;4.596;2022-09-24T01:43:50;27.05;;;24.23;;
32026;SDS011;18543;50.848;4.596;2022-09-24T01:46:18;28.75;;;25.08;;
32026;SDS011;18543;50.848;4.596;2022-09-24T01:48:46;26.38;;;23.73;;
32026;SDS011;18543;50.848;4.596;2022-09-24T01:51:15;28.38;;;24.88;;
32026;SDS011;18543;50.848;4.596;2022-09-24T01:54:06;27.58;;;24.67;;
32026;SDS011;18543;50.848;4.596;2022-09-24T01:59:41;27.60;;;24.80;;
32026;SDS011;18543;50.848;4.596;2022-09-24T02:05:06;28.50;;;24.60;;
32026;SDS011;18543;50.848;4.596;2022-09-24T02:07:57;28.15;;;25.17;;
32026;SDS011;18543;50.848;4.596;2022-09-24T02:10:39;28.23;;;25.27;;
32026;SDS011;18543;50.848;4.596;2022-09-24T02:13:11;27.25;;;24.42;;
32026;SDS011;18543;50.848;4.596;2022-09-24T02:15:43;29.42;;;26.30;;
32026;SDS011;18543;50.848;4.596;2022-09-24T02:18:16;29.00;;;25.58;;
32026;SDS011;18543;50.848;4.596;2022-09-24T02:20:49;28.02;;;25.08;;
32026;SDS011;18543;50.848;4.596;2022-09-24T02:23:17;30.70;;;26.70;;
32026;SDS011;18543;50.848;4.596;2022-09-24T02:25:47;29.23;;;26.23;;
32026;SDS011;18543;50.848;4.596;2022-09-24T02:28:23;29.38;;;26.27;;
32026;SDS011;18543;50.848;4.596;2022-09-24T02:30:53;28.10;;;25.10;;
32026;SDS011;18543;50.848;4.596;2022-09-24T02:33:30;28.77;;;25.65;;
32026;SDS011;18543;50.848;4.596;2022-09-24T02:36:17;33.05;;;26.33;;
32026;SDS011;18543;50.848;4.596;2022-09-24T02:38:44;30.75;;;26.20;;
32026;SDS011;18543;50.848;4.596;2022-09-24T02:41:12;32.22;;;26.63;;
32026;SDS011;18543;50.848;4.596;2022-09-24T02:43:39;33.30;;;26.55;;
32026;SDS011;18543;50.848;4.596;2022-09-24T02:46:06;29.48;;;26.40;;
32026;SDS011;18543;50.848;4.596;2022-09-24T02:48:35;30.08;;;26.88;;
32026;SDS011;18543;50.848;4.596;2022-09-24T02:51:03;32.07;;;26.40;;
32026;SDS011;18543;50.848;4.596;2022-09-24T02:53:30;29.95;;;26.85;;
32026;SDS011;18543;50.848;4.596;2022-09-24T02:55:58;29.95;;;25.73;;
32026;SDS011;18543;50.848;4.596;2022-09-24T03:00:53;33.07;;;28.07;;
32026;SDS011;18543;50.848;4.596;2022-09-24T03:03:21;30.08;;;26.60;;
32026;SDS011;18543;50.848;4.596;2022-09-24T03:05:53;31.23;;;27.88;;
32026;SDS011;18543;50.848;4.596;2022-09-24T03:08:23;30.77;;;27.42;;
32026;SDS011;18543;50.848;4.596;2022-09-24T03:10:50;33.78;;;28.13;;
32026;SDS011;18543;50.848;4.596;2022-09-24T03:13:17;30.38;;;27.13;;
32026;SDS011;18543;50.848;4.596;2022-09-24T03:15:44;32.65;;;27.00;;
32026;SDS011;18543;50.848;4.596;2022-09-24T03:18:11;30.02;;;26.90;;
32026;SDS011;18543;50.848;4.596;2022-09-24T03:20:39;36.13;;;27.77;;
32026;SDS011;18543;50.848;4.596;2022-09-24T03:23:05;32.80;;;28.02;;
32026;SDS011;18543;50.848;4.596;2022-09-24T03:25:33;29.80;;;26.55;;
32026;SDS011;18543;50.848;4.596;2022-09-24T03:27:59;31.98;;;27.20;;
32026;SDS011;18543;50.848;4.596;2022-09-24T03:30:26;32.58;;;27.45;;
32026;SDS011;18543;50.848;4.596;2022-09-24T03:33:12;29.50;;;25.88;;
32026;SDS011;18543;50.848;4.596;2022-09-24T03:35:39;31.67;;;26.73;;
32026;SDS011;18543;50.848;4.596;2022-09-24T03:38:05;33.20;;;28.23;;
32026;SDS011;18543;50.848;4.596;2022-09-24T03:40:32;30.83;;;26.45;;
32026;SDS011;18543;50.848;4.596;2022-09-24T03:42:59;31.58;;;28.10;;
32026;SDS011;18543;50.848;4.596;2022-09-24T03:45:26;32.97;;;27.92;;
32026;SDS011;18543;50.848;4.596;2022-09-24T03:47:52;30.92;;;27.17;;
32026;SDS011;18543;50.848;4.596;2022-09-24T03:50:20;31.55;;;27.38;;
32026;SDS011;18543;50.848;4.596;2022-09-24T03:52:47;31.42;;;27.00;;
32026;SDS011;18543;50.848;4.596;2022-09-24T03:55:13;30.42;;;27.17;;
32026;SDS011;18543;50.848;4.596;2022-09-24T03:57:40;34.53;;;27.90;;
32026;SDS011;18543;50.848;4.596;2022-09-24T04:00:07;32.25;;;26.88;;
32026;SDS011;18543;50.848;4.596;2022-09-24T04:02:35;30.58;;;27.23;;
32026;SDS011;18543;50.848;4.596;2022-09-24T04:05:02;29.88;;;26.67;;
32026;SDS011;18543;50.848;4.596;2022-09-24T04:07:29;31.67;;;27.07;;
32026;SDS011;18543;50.848;4.596;2022-09-24T04:09:56;31.15;;;26.77;;
32026;SDS011;18543;50.848;4.596;2022-09-24T04:12:22;33.78;;;26.55;;
32026;SDS011;18543;50.848;4.596;2022-09-24T04:14:49;31.10;;;27.13;;
32026;SDS011;18543;50.848;4.596;2022-09-24T04:17:16;28.60;;;25.30;;
32026;SDS011;18543;50.848;4.596;2022-09-24T04:19:43;34.95;;;27.13;;
32026;SDS011;18543;50.848;4.596;2022-09-24T04:22:09;31.40;;;26.83;;
32026;SDS011;18543;50.848;4.596;2022-09-24T04:24:36;30.13;;;26.92;;
32026;SDS011;18543;50.848;4.596;2022-09-24T04:27:03;28.63;;;25.63;;
32026;SDS011;18543;50.848;4.596;2022-09-24T04:29:30;29.40;;;26.25;;
32026;SDS011;18543;50.848;4.596;2022-09-24T04:31:57;36.28;;;27.63;;
32026;SDS011;18543;50.848;4.596;2022-09-24T04:34:24;31.63;;;26.70;;
32026;SDS011;18543;50.848;4.596;2022-09-24T04:36:50;29.45;;;26.25;;
32026;SDS011;18543;50.848;4.596;2022-09-24T04:39:17;29.88;;;26.65;;
32026;SDS011;18543;50.848;4.596;2022-09-24T04:41:44;28.67;;;25.50;;
32026;SDS011;18543;50.848;4.596;2022-09-24T04:44:13;30.05;;;26.35;;
32026;SDS011;18543;50.848;4.596;2022-09-24T04:46:43;31.85;;;26.40;;
32026;SDS011;18543;50.848;4.596;2022-09-24T04:49:10;30.20;;;25.58;;
32026;SDS011;18543;50.848;4.596;2022-09-24T04:51:37;29.02;;;25.98;;
32026;SDS011;18543;50.848;4.596;2022-09-24T04:54:03;29.77;;;26.45;;
32026;SDS011;18543;50.848;4.596;2022-09-24T04:56:30;29.13;;;25.95;;
32026;SDS011;18543;50.848;4.596;2022-09-24T04:58:57;29.17;;;25.75;;
32026;SDS011;18543;50.848;4.596;2022-09-24T05:01:25;31.77;;;26.53;;
32026;SDS011;18543;50.848;4.596;2022-09-24T05:03:51;30.15;;;26.13;;
32026;SDS011;18543;50.848;4.596;2022-09-24T05:06:18;28.35;;;25.45;;
32026;SDS011;18543;50.848;4.596;2022-09-24T05:08:45;29.35;;;26.13;;
32026;SDS011;18543;50.848;4.596;2022-09-24T05:11:12;29.20;;;25.75;;
32026;SDS011;18543;50.848;4.596;2022-09-24T05:13:39;30.23;;;26.90;;
32026;SDS011;18543;50.848;4.596;2022-09-24T05:16:05;31.52;;;27.58;;
32026;SDS011;18543;50.848;4.596;2022-09-24T05:18:32;30.67;;;27.48;;
32026;SDS011;18543;50.848;4.596;2022-09-24T05:21:00;30.83;;;27.13;;
32026;SDS011;18543;50.848;4.596;2022-09-24T05:23:27;35.10;;;27.03;;
32026;SDS011;18543;50.848;4.596;2022-09-24T05:25:54;32.95;;;27.00;;
32026;SDS011;18543;50.848;4.596;2022-09-24T05:28:40;30.73;;;27.15;;
32026;SDS011;18543;50.848;4.596;2022-09-24T05:31:07;30.55;;;26.75;;
32026;SDS011;18543;50.848;4.596;2022-09-24T05:33:36;31.90;;;26.90;;
32026;SDS011;18543;50.848;4.596;2022-09-24T05:36:03;32.58;;;27.45;;
32026;SDS011;18543;50.848;4.596;2022-09-24T05:38:30;34.13;;;28.90;;
32026;SDS011;18543;50.848;4.596;2022-09-24T05:40:58;30.88;;;27.33;;
32026;SDS011;18543;50.848;4.596;2022-09-24T05:43:25;34.65;;;27.55;;
32026;SDS011;18543;50.848;4.596;2022-09-24T05:45:53;33.25;;;28.35;;
32026;SDS011;18543;50.848;4.596;2022-09-24T05:48:20;34.38;;;28.52;;
32026;SDS011;18543;50.848;4.596;2022-09-24T05:50:46;33.47;;;28.85;;
32026;SDS011;18543;50.848;4.596;2022-09-24T05:53:13;32.55;;;28.27;;
32026;SDS011;18543;50.848;4.596;2022-09-24T05:55:41;33.75;;;28.85;;
32026;SDS011;18543;50.848;4.596;2022-09-24T05:58:10;31.80;;;28.00;;
32026;SDS011;18543;50.848;4.596;2022-09-24T06:00:39;33.05;;;27.85;;
32026;SDS011;18543;50.848;4.596;2022-09-24T06:03:07;31.50;;;28.02;;
32026;SDS011;18543;50.848;4.596;2022-09-24T06:05:38;31.77;;;28.27;;
32026;SDS011;18543;50.848;4.596;2022-09-24T06:08:09;32.50;;;28.88;;
32026;SDS011;18543;50.848;4.596;2022-09-24T06:10:37;33.10;;;28.45;;
32026;SDS011;18543;50.848;4.596;2022-09-24T06:13:04;32.50;;;28.42;;
32026;SDS011;18543;50.848;4.596;2022-09-24T06:15:31;33.45;;;29.15;;
32026;SDS011;18543;50.848;4.596;2022-09-24T06:17:58;33.73;;;29.00;;
32026;SDS011;18543;50.848;4.596;2022-09-24T06:20:25;31.58;;;27.88;;
32026;SDS011;18543;50.848;4.596;2022-09-24T06:22:55;35.13;;;28.65;;
32026;SDS011;18543;50.848;4.596;2022-09-24T06:25:23;34.45;;;29.27;;
32026;SDS011;18543;50.848;4.596;2022-09-24T06:27:54;35.65;;;29.92;;
32026;SDS011;18543;50.848;4.596;2022-09-24T06:30:26;31.63;;;27.80;;
32026;SDS011;18543;50.848;4.596;2022-09-24T06:32:53;35.65;;;29.48;;
32026;SDS011;18543;50.848;4.596;2022-09-24T06:35:21;34.10;;;28.58;;
32026;SDS011;18543;50.848;4.596;2022-09-24T06:37:47;31.90;;;27.42;;
32026;SDS011;18543;50.848;4.596;2022-09-24T06:40:18;33.55;;;28.27;;
32026;SDS011;18543;50.848;4.596;2022-09-24T06:42:49;31.70;;;28.30;;
32026;SDS011;18543;50.848;4.596;2022-09-24T06:45:18;36.75;;;29.67;;
32026;SDS011;18543;50.848;4.596;2022-09-24T06:47:52;35.97;;;28.83;;
32026;SDS011;18543;50.848;4.596;2022-09-24T06:50:20;33.88;;;28.77;;
32026;SDS011;18543;50.848;4.596;2022-09-24T06:52:49;36.05;;;29.52;;
32026;SDS011;18543;50.848;4.596;2022-09-24T06:55:16;36.80;;;29.30;;
32026;SDS011;18543;50.848;4.596;2022-09-24T07:00:11;33.22;;;27.38;;
32026;SDS011;18543;50.848;4.596;2022-09-24T07:05:06;32.60;;;28.70;;
32026;SDS011;18543;50.848;4.596;2022-09-24T07:07:36;32.42;;;27.42;;
32026;SDS011;18543;50.848;4.596;2022-09-24T07:10:04;27.60;;;22.92;;
32026;SDS011;18543;50.848;4.596;2022-09-24T07:12:34;24.25;;;21.70;;
32026;SDS011;18543;50.848;4.596;2022-09-24T07:15:02;26.55;;;20.85;;
32026;SDS011;18543;50.848;4.596;2022-09-24T07:17:29;24.08;;;20.83;;
32026;SDS011;18543;50.848;4.596;2022-09-24T07:19:59;26.50;;;19.05;;
32026;SDS011;18543;50.848;4.596;2022-09-24T07:22:26;25.88;;;21.52;;
32026;SDS011;18543;50.848;4.596;2022-09-24T07:24:53;24.15;;;21.40;;
32026;SDS011;18543;50.848;4.596;2022-09-24T07:27:20;25.27;;;21.40;;
32026;SDS011;18543;50.848;4.596;2022-09-24T07:29:47;24.00;;;20.65;;
32026;SDS011;18543;50.848;4.596;2022-09-24T07:32:14;24.60;;;20.73;;
32026;SDS011;18543;50.848;4.596;2022-09-24T07:34:42;28.10;;;22.08;;
32026;SDS011;18543;50.848;4.596;2022-09-24T07:37:10;24.58;;;21.27;;
32026;SDS011;18543;50.848;4.596;2022-09-24T07:39:37;25.83;;;21.05;;
32026;SDS011;18543;50.848;4.596;2022-09-24T07:42:04;24.98;;;21.45;;
32026;SDS011;18543;50.848;4.596;2022-09-24T07:44:31;28.25;;;22.02;;
32026;SDS011;18543;50.848;4.596;2022-09-24T07:46:58;23.52;;;19.90;;
32026;SDS011;18543;50.848;4.596;2022-09-24T07:49:25;24.87;;;18.93;;
32026;SDS011;18543;50.848;4.596;2022-09-24T07:51:54;24.25;;;20.75;;
32026;SDS011;18543;50.848;4.596;2022-09-24T07:54:20;24.92;;;21.40;;
32026;SDS011;18543;50.848;4.596;2022-09-24T07:56:47;24.40;;;21.05;;
32026;SDS011;18543;50.848;4.596;2022-09-24T07:59:14;24.15;;;21.55;;
32026;SDS011;18543;50.848;4.596;2022-09-24T08:01:41;23.42;;;20.85;;
32026;SDS011;18543;50.848;4.596;2022-09-24T08:04:08;24.03;;;21.50;;
32026;SDS011;18543;50.848;4.596;2022-09-24T08:06:35;25.73;;;22.92;;
32026;SDS011;18543;50.848;4.596;2022-09-24T08:09:07;26.05;;;21.08;;
32026;SDS011;18543;50.848;4.596;2022-09-24T08:11:34;26.92;;;22.50;;
32026;SDS011;18543;50.848;4.596;2022-09-24T08:14:02;23.35;;;19.52;;
32026;SDS011;18543;50.848;4.596;2022-09-24T08:16:28;26.20;;;21.80;;
32026;SDS011;18543;50.848;4.596;2022-09-24T08:18:56;23.90;;;20.75;;
32026;SDS011;18543;50.848;4.596;2022-09-24T08:21:22;27.17;;;22.50;;
32026;SDS011;18543;50.848;4.596;2022-09-24T08:23:49;25.77;;;21.92;;
32026;SDS011;18543;50.848;4.596;2022-09-24T08:26:16;28.08;;;22.85;;
32026;SDS011;18543;50.848;4.596;2022-09-24T08:28:43;28.58;;;22.27;;
32026;SDS011;18543;50.848;4.596;2022-09-24T08:31:11;23.85;;;21.23;;
32026;SDS011;18543;50.848;4.596;2022-09-24T08:33:38;23.73;;;21.13;;
32026;SDS011;18543;50.848;4.596;2022-09-24T08:36:06;25.42;;;21.05;;
32026;SDS011;18543;50.848;4.596;2022-09-24T08:38:34;24.15;;;19.98;;
32026;SDS011;18543;50.848;4.596;2022-09-24T08:41:13;27.85;;;22.48;;
32026;SDS011;18543;50.848;4.596;2022-09-24T08:44:04;24.60;;;21.67;;
32026;SDS011;18543;50.848;4.596;2022-09-24T08:47:11;26.02;;;21.52;;
32026;SDS011;18543;50.848;4.596;2022-09-24T08:49:57;25.33;;;21.73;;
32026;SDS011;18543;50.848;4.596;2022-09-24T09:00:57;27.05;;;21.20;;
32026;SDS011;18543;50.848;4.596;2022-09-24T09:04:12;25.15;;;22.45;;
32026;SDS011;18543;50.848;4.596;2022-09-24T09:12:04;27.33;;;22.38;;
32026;SDS011;18543;50.848;4.596;2022-09-24T09:14:43;27.00;;;22.95;;
32026;SDS011;18543;50.848;4.596;2022-09-24T09:20:16;27.33;;;22.42;;
32026;SDS011;18543;50.848;4.596;2022-09-24T09:22:48;26.25;;;22.17;;
32026;SDS011;18543;50.848;4.596;2022-09-24T09:28:00;28.08;;;23.08;;
32026;SDS011;18543;50.848;4.596;2022-09-24T09:39:07;26.98;;;21.67;;
32026;SDS011;18543;50.848;4.596;2022-09-24T09:42:03;25.95;;;21.30;;
32026;SDS011;18543;50.848;4.596;2022-09-24T09:49:56;23.60;;;20.65;;
32026;SDS011;18543;50.848;4.596;2022-09-24T09:52:32;23.05;;;18.65;;
32026;SDS011;18543;50.848;4.596;2022-09-24T09:55:02;25.35;;;19.83;;
32026;SDS011;18543;50.848;4.596;2022-09-24T09:57:30;23.15;;;18.65;;
32026;SDS011;18543;50.848;4.596;2022-09-24T09:59:59;22.73;;;18.27;;
32026;SDS011;18543;50.848;4.596;2022-09-24T10:02:27;24.75;;;19.00;;
32026;SDS011;18543;50.848;4.596;2022-09-24T10:04:57;22.60;;;19.60;;
32026;SDS011;18543;50.848;4.596;2022-09-24T10:07:27;26.67;;;19.17;;
32026;SDS011;18543;50.848;4.596;2022-09-24T10:09:58;24.40;;;18.83;;
32026;SDS011;18543;50.848;4.596;2022-09-24T10:12:46;23.40;;;18.67;;
32026;SDS011;18543;50.848;4.596;2022-09-24T10:17:40;26.05;;;18.17;;
32026;SDS011;18543;50.848;4.596;2022-09-24T10:20:22;22.77;;;17.42;;
32026;SDS011;18543;50.848;4.596;2022-09-24T10:22:54;22.67;;;17.52;;
32026;SDS011;18543;50.848;4.596;2022-09-24T10:25:27;21.98;;;17.48;;
32026;SDS011;18543;50.848;4.596;2022-09-24T10:27:56;20.40;;;16.48;;
32026;SDS011;18543;50.848;4.596;2022-09-24T10:30:48;20.45;;;16.23;;
32026;SDS011;18543;50.848;4.596;2022-09-24T10:33:35;19.88;;;17.42;;
32026;SDS011;18543;50.848;4.596;2022-09-24T10:36:06;21.17;;;17.50;;
32026;SDS011;18543;50.848;4.596;2022-09-24T10:38:40;21.98;;;16.65;;
32026;SDS011;18543;50.848;4.596;2022-09-24T10:41:26;21.80;;;16.67;;
32026;SDS011;18543;50.848;4.596;2022-09-24T10:46:25;22.63;;;16.67;;
32026;SDS011;18543;50.848;4.596;2022-09-24T10:56:52;22.60;;;17.20;;
32026;SDS011;18543;50.848;4.596;2022-09-24T10:59:33;22.50;;;17.15;;
32026;SDS011;18543;50.848;4.596;2022-09-24T11:02:44;22.73;;;17.80;;
32026;SDS011;18543;50.848;4.596;2022-09-24T11:05:39;19.85;;;16.63;;
32026;SDS011;18543;50.848;4.596;2022-09-24T11:19:28;22.20;;;17.92;;
32026;SDS011;18543;50.848;4.596;2022-09-24T11:30:38;18.95;;;15.40;;
32026;SDS011;18543;50.848;4.596;2022-09-24T11:33:36;25.98;;;16.60;;
32026;SDS011;18543;50.848;4.596;2022-09-24T11:36:32;23.00;;;16.48;;
32026;SDS011;18543;50.848;4.596;2022-09-24T11:52:39;19.73;;;16.30;;
32026;SDS011;18543;50.848;4.596;2022-09-24T11:55:16;26.50;;;20.25;;
32026;SDS011;18543;50.848;4.596;2022-09-24T12:00:53;23.55;;;17.52;;
32026;SDS011;18543;50.848;4.596;2022-09-24T12:03:29;17.00;;;15.18;;
32026;SDS011;18543;50.848;4.596;2022-09-24T12:09:28;18.85;;;14.65;;
32026;SDS011;18543;50.848;4.596;2022-09-24T12:12:04;19.80;;;14.77;;
32026;SDS011;18543;50.848;4.596;2022-09-24T12:14:44;19.40;;;15.43;;
32026;SDS011;18543;50.848;4.596;2022-09-24T12:17:17;22.20;;;16.13;;
32026;SDS011;18543;50.848;4.596;2022-09-24T12:19:51;18.30;;;15.07;;
32026;SDS011;18543;50.848;4.596;2022-09-24T12:22:22;19.95;;;14.52;;
32026;SDS011;18543;50.848;4.596;2022-09-24T12:24:51;19.02;;;15.70;;
32026;SDS011;18543;50.848;4.596;2022-09-24T12:27:31;21.90;;;15.82;;
32026;SDS011;18543;50.848;4.596;2022-09-24T12:30:03;20.58;;;15.95;;
32026;SDS011;18543;50.848;4.596;2022-09-24T12:36:06;20.10;;;15.93;;
32026;SDS011;18543;50.848;4.596;2022-09-24T12:38:40;20.63;;;15.65;;
32026;SDS011;18543;50.848;4.596;2022-09-24T12:46:42;19.85;;;14.65;;
32026;SDS011;18543;50.848;4.596;2022-09-24T12:52:00;17.67;;;14.65;;
32026;SDS011;18543;50.848;4.596;2022-09-24T12:54:34;18.80;;;15.07;;
32026;SDS011;18543;50.848;4.596;2022-09-24T12:57:12;17.35;;;14.20;;
32026;SDS011;18543;50.848;4.596;2022-09-24T12:59:52;23.02;;;16.13;;
32026;SDS011;18543;50.848;4.596;2022-09-24T13:02:22;17.55;;;15.32;;
32026;SDS011;18543;50.848;4.596;2022-09-24T13:05:16;18.58;;;15.23;;
32026;SDS011;18543;50.848;4.596;2022-09-24T13:10:23;16.77;;;14.98;;
32026;SDS011;18543;50.848;4.596;2022-09-24T13:12:55;18.73;;;14.35;;
32026;SDS011;18543;50.848;4.596;2022-09-24T13:15:34;18.65;;;14.57;;
32026;SDS011;18543;50.848;4.596;2022-09-24T13:20:37;17.95;;;14.00;;
32026;SDS011;18543;50.848;4.596;2022-09-24T13:25:54;18.23;;;14.55;;
32026;SDS011;18543;50.848;4.596;2022-09-24T13:31:26;15.32;;;13.35;;
32026;SDS011;18543;50.848;4.596;2022-09-24T13:33:59;16.83;;;13.02;;
32026;SDS011;18543;50.848;4.596;2022-09-24T13:36:42;15.00;;;13.18;;
32026;SDS011;18543;50.848;4.596;2022-09-24T13:42:00;15.80;;;13.18;;
32026;SDS011;18543;50.848;4.596;2022-09-24T13:44:42;16.42;;;13.43;;
32026;SDS011;18543;50.848;4.596;2022-09-24T13:50:06;16.45;;;14.40;;
32026;SDS011;18543;50.848;4.596;2022-09-24T13:52:56;16.40;;;13.40;;
32026;SDS011;18543;50.848;4.596;2022-09-24T13:58:04;18.98;;;14.38;;
32026;SDS011;18543;50.848;4.596;2022-09-24T14:00:50;17.02;;;13.90;;
32026;SDS011;18543;50.848;4.596;2022-09-24T14:05:50;18.85;;;15.68;;
32026;SDS011;18543;50.848;4.596;2022-09-24T14:08:19;17.50;;;14.10;;
32026;SDS011;18543;50.848;4.596;2022-09-24T14:10:48;16.25;;;14.55;;
32026;SDS011;18543;50.848;4.596;2022-09-24T14:13:21;17.20;;;14.20;;
32026;SDS011;18543;50.848;4.596;2022-09-24T14:15:52;16.77;;;14.25;;
32026;SDS011;18543;50.848;4.596;2022-09-24T14:18:32;16.60;;;13.27;;
32026;SDS011;18543;50.848;4.596;2022-09-24T14:21:17;19.98;;;14.15;;
32026;SDS011;18543;50.848;4.596;2022-09-24T14:24:03;16.50;;;14.80;;
32026;SDS011;18543;50.848;4.596;2022-09-24T14:26:40;20.17;;;15.55;;
32026;SDS011;18543;50.848;4.596;2022-09-24T14:29:16;14.48;;;12.85;;
32026;SDS011;18543;50.848;4.596;2022-09-24T14:31:49;19.35;;;15.73;;
32026;SDS011;18543;50.848;4.596;2022-09-24T14:34:40;19.80;;;16.13;;
32026;SDS011;18543;50.848;4.596;2022-09-24T14:39:44;15.65;;;14.02;;
32026;SDS011;18543;50.848;4.596;2022-09-24T14:42:20;16.73;;;14.70;;
32026;SDS011;18543;50.848;4.596;2022-09-24T14:44:57;20.17;;;14.80;;
32026;SDS011;18543;50.848;4.596;2022-09-24T14:47:27;17.05;;;13.57;;
32026;SDS011;18543;50.848;4.596;2022-09-24T14:49:56;17.17;;;13.50;;
32026;SDS011;18543;50.848;4.596;2022-09-24T14:57:38;15.60;;;13.30;;
32026;SDS011;18543;50.848;4.596;2022-09-24T15:03:15;17.75;;;13.73;;
32026;SDS011;18543;50.848;4.596;2022-09-24T15:05:45;16.65;;;14.70;;
32026;SDS011;18543;50.848;4.596;2022-09-24T15:13:25;17.58;;;15.30;;
32026;SDS011;18543;50.848;4.596;2022-09-24T15:16:16;21.58;;;15.45;;
32026;SDS011;18543;50.848;4.596;2022-09-24T15:18:52;16.58;;;14.65;;
32026;SDS011;18543;50.848;4.596;2022-09-24T15:21:21;20.90;;;15.30;;
32026;SDS011;18543;50.848;4.596;2022-09-24T15:23:49;20.40;;;16.10;;
32026;SDS011;18543;50.848;4.596;2022-09-24T15:26:16;17.83;;;15.48;;
32026;SDS011;18543;50.848;4.596;2022-09-24T15:28:42;17.90;;;15.00;;
32026;SDS011;18543;50.848;4.596;2022-09-24T15:31:09;18.80;;;14.30;;
32026;SDS011;18543;50.848;4.596;2022-09-24T15:33:37;19.77;;;15.88;;
32026;SDS011;18543;50.848;4.596;2022-09-24T15:36:03;18.77;;;15.32;;
32026;SDS011;18543;50.848;4.596;2022-09-24T15:38:31;18.37;;;15.37;;
32026;SDS011;18543;50.848;4.596;2022-09-24T15:40:58;19.92;;;15.13;;
32026;SDS011;18543;50.848;4.596;2022-09-24T15:43:25;18.42;;;15.10;;
32026;SDS011;18543;50.848;4.596;2022-09-24T15:45:52;19.10;;;15.77;;
32026;SDS011;18543;50.848;4.596;2022-09-24T15:48:20;19.17;;;15.70;;
32026;SDS011;18543;50.848;4.596;2022-09-24T15:50:46;18.85;;;16.00;;
32026;SDS011;18543;50.848;4.596;2022-09-24T15:53:16;23.80;;;15.73;;
32026;SDS011;18543;50.848;4.596;2022-09-24T15:55:46;18.67;;;15.75;;
32026;SDS011;18543;50.848;4.596;2022-09-24T15:58:17;17.55;;;15.23;;
32026;SDS011;18543;50.848;4.596;2022-09-24T16:00:45;19.67;;;16.63;;
32026;SDS011;18543;50.848;4.596;2022-09-24T16:03:25;20.05;;;16.20;;
32026;SDS011;18543;50.848;4.596;2022-09-24T16:05:53;17.55;;;15.63;;
32026;SDS011;18543;50.848;4.596;2022-09-24T16:10:48;18.00;;;15.38;;
32026;SDS011;18543;50.848;4.596;2022-09-24T16:13:15;18.15;;;15.02;;
32026;SDS011;18543;50.848;4.596;2022-09-24T16:15:44;19.75;;;15.75;;
32026;SDS011;18543;50.848;4.596;2022-09-24T16:18:15;18.95;;;14.93;;
32026;SDS011;18543;50.848;4.596;2022-09-24T16:20:47;17.58;;;14.88;;
32026;SDS011;18543;50.848;4.596;2022-09-24T16:23:16;17.88;;;15.05;;
32026;SDS011;18543;50.848;4.596;2022-09-24T16:25:53;17.23;;;14.83;;
32026;SDS011;18543;50.848;4.596;2022-09-24T16:28:22;16.02;;;14.32;;
32026;SDS011;18543;50.848;4.596;2022-09-24T16:30:50;15.38;;;13.75;;
32026;SDS011;18543;50.848;4.596;2022-09-24T16:33:19;18.25;;;14.70;;
32026;SDS011;18543;50.848;4.596;2022-09-24T16:35:46;18.85;;;13.95;;
32026;SDS011;18543;50.848;4.596;2022-09-24T16:38:13;18.98;;;14.20;;
32026;SDS011;18543;50.848;4.596;2022-09-24T16:40:47;17.20;;;13.65;;
32026;SDS011;18543;50.848;4.596;2022-09-24T16:43:14;17.67;;;14.57;;
32026;SDS011;18543;50.848;4.596;2022-09-24T16:45:41;17.60;;;13.95;;
32026;SDS011;18543;50.848;4.596;2022-09-24T16:48:10;16.58;;;14.15;;
32026;SDS011;18543;50.848;4.596;2022-09-24T16:50:38;16.35;;;14.55;;
32026;SDS011;18543;50.848;4.596;2022-09-24T16:53:05;15.77;;;14.00;;
32026;SDS011;18543;50.848;4.596;2022-09-24T16:55:33;17.27;;;14.73;;
32026;SDS011;18543;50.848;4.596;2022-09-24T16:57:59;17.55;;;14.88;;
32026;SDS011;18543;50.848;4.596;2022-09-24T17:00:26;18.25;;;14.38;;
32026;SDS011;18543;50.848;4.596;2022-09-24T17:02:53;16.55;;;14.85;;
32026;SDS011;18543;50.848;4.596;2022-09-24T17:05:20;19.00;;;14.88;;
32026;SDS011;18543;50.848;4.596;2022-09-24T17:07:49;18.40;;;15.27;;
32026;SDS011;18543;50.848;4.596;2022-09-24T17:10:16;16.42;;;14.68;;
32026;SDS011;18543;50.848;4.596;2022-09-24T17:12:44;17.10;;;15.23;;
32026;SDS011;18543;50.848;4.596;2022-09-24T17:15:13;18.52;;;15.65;;
32026;SDS011;18543;50.848;4.596;2022-09-24T17:17:41;17.70;;;15.75;;
32026;SDS011;18543;50.848;4.596;2022-09-24T17:20:15;18.52;;;15.02;;
32026;SDS011;18543;50.848;4.596;2022-09-24T17:22:43;17.25;;;15.02;;
32026;SDS011;18543;50.848;4.596;2022-09-24T17:25:10;21.60;;;15.38;;
32026;SDS011;18543;50.848;4.596;2022-09-24T17:27:37;17.80;;;15.52;;
32026;SDS011;18543;50.848;4.596;2022-09-24T17:30:05;18.58;;;14.93;;
32026;SDS011;18543;50.848;4.596;2022-09-24T17:32:32;16.52;;;14.73;;
32026;SDS011;18543;50.848;4.596;2022-09-24T17:34:59;16.65;;;14.82;;
32026;SDS011;18543;50.848;4.596;2022-09-24T17:37:26;17.70;;;15.10;;